createdAt,value
2018-07-04T00:00:48.258Z,50.15
2018-07-04T00:01:48.421Z,50.35
2018-07-04T00:02:48.594Z,50.15
2018-07-04T00:03:48.764Z,50.35
2018-07-04T00:04:48.936Z,50.54
2018-07-04T00:05:49.102Z,50.63
2018-07-04T00:06:49.270Z,50.25
2018-07-04T00:07:49.436Z,51.38
2018-07-04T00:08:49.609Z,50.90
2018-07-04T00:09:49.779Z,51.09
2018-07-04T00:10:49.958Z,51.48
2018-07-04T00:11:50.124Z,51.67
2018-07-04T00:12:50.288Z,52.25
2018-07-04T00:13:50.466Z,52.15
2018-07-04T00:14:50.638Z,52.34
2018-07-04T00:15:50.810Z,51.86
2018-07-04T00:16:50.973Z,53.02
2018-07-04T00:17:51.153Z,52.92
2018-07-04T00:18:51.313Z,52.92
2018-07-04T00:19:51.480Z,53.31
2018-07-04T00:20:51.656Z,53.11
2018-07-04T00:21:51.826Z,53.69
2018-07-04T00:22:51.990Z,53.11
2018-07-04T00:23:52.162Z,53.21
2018-07-04T00:24:52.328Z,53.40
2018-07-04T00:25:52.503Z,52.92
2018-07-04T00:26:52.681Z,53.50
2018-07-04T00:27:52.853Z,53.78
2018-07-04T00:28:53.023Z,54.17
2018-07-04T00:29:53.192Z,54.53
2018-07-04T00:30:53.361Z,54.05
2018-07-04T00:31:53.531Z,53.66
2018-07-04T00:32:53.735Z,54.43
2018-07-04T00:33:53.884Z,54.43
2018-07-04T00:34:54.051Z,53.28
2018-07-04T00:35:54.221Z,54.14
2018-07-04T00:36:54.386Z,54.34
2018-07-04T00:37:54.552Z,54.50
2018-07-04T00:38:54.723Z,54.41
2018-07-04T00:39:54.899Z,55.46
2018-07-04T00:40:55.065Z,55.27
2018-07-04T00:41:56.086Z,55.46
2018-07-04T00:42:55.448Z,55.46
2018-07-04T00:43:55.611Z,54.99
2018-07-04T00:44:55.782Z,54.50
2018-07-04T00:45:55.956Z,54.79
2018-07-04T00:46:56.128Z,54.31
2018-07-04T00:47:56.294Z,55.27
2018-07-04T00:48:56.468Z,55.18
2018-07-04T00:49:56.636Z,54.99
2018-07-04T00:50:56.853Z,55.37
2018-07-04T00:51:56.979Z,54.99
2018-07-04T00:52:57.150Z,54.99
2018-07-04T00:53:57.319Z,55.27
2018-07-04T00:54:57.487Z,54.99
2018-07-04T00:55:57.663Z,55.08
2018-07-04T00:56:57.845Z,55.08
2018-07-04T00:57:58.015Z,55.08
2018-07-04T00:58:58.188Z,54.69
2018-07-04T00:59:58.352Z,55.08
2018-07-04T01:01:51.693Z,55.46
2018-07-04T01:02:51.779Z,55.08
2018-07-04T01:03:51.906Z,55.01
2018-07-04T01:04:52.073Z,55.11
2018-07-04T01:05:52.249Z,55.94
2018-07-04T01:06:52.422Z,56.04
2018-07-04T01:07:52.589Z,55.94
2018-07-04T01:08:52.817Z,56.91
2018-07-04T01:09:52.910Z,56.14
2018-07-04T01:10:53.086Z,56.43
2018-07-04T01:11:53.253Z,56.62
2018-07-04T01:12:53.421Z,56.62
2018-07-04T01:13:53.587Z,57.10
2018-07-04T01:14:53.778Z,57.29
2018-07-04T01:15:53.931Z,57.48
2018-07-04T01:16:54.110Z,57.00
2018-07-04T01:17:54.267Z,57.39
2018-07-04T01:18:54.435Z,57.55
2018-07-04T01:19:54.605Z,57.48
2018-07-04T01:20:54.775Z,57.48
2018-07-04T01:21:54.956Z,57.75
2018-07-04T01:22:55.129Z,57.75
2018-07-04T01:23:55.294Z,57.45
2018-07-04T01:24:55.470Z,57.55
2018-07-04T01:25:55.635Z,57.75
2018-07-04T01:26:55.806Z,57.84
2018-07-04T01:27:55.972Z,57.84
2018-07-04T01:28:56.152Z,58.00
2018-07-04T01:29:56.315Z,58.48
2018-07-04T01:30:56.483Z,58.58
2018-07-04T01:31:56.650Z,58.20
2018-07-04T01:32:56.824Z,58.58
2018-07-04T01:33:56.992Z,58.29
2018-07-04T01:34:57.162Z,58.29
2018-07-04T01:35:57.330Z,58.29
2018-07-04T01:36:57.505Z,58.77
2018-07-04T01:37:57.666Z,58.87
2018-07-04T01:38:57.835Z,58.87
2018-07-04T01:39:58.005Z,59.16
2018-07-04T01:40:58.172Z,59.54
2018-07-04T01:41:58.339Z,59.64
2018-07-04T01:42:58.513Z,59.34
2018-07-04T01:43:58.679Z,59.54
2018-07-04T01:44:58.857Z,59.16
2018-07-04T01:45:59.014Z,60.40
2018-07-04T01:46:59.201Z,60.02
2018-07-04T01:47:59.370Z,60.11
2018-07-04T01:48:59.541Z,59.44
2018-07-04T01:49:59.732Z,59.92
2018-07-04T01:50:59.873Z,60.40
2018-07-04T01:52:00.042Z,60.40
2018-07-04T01:53:00.219Z,60.50
2018-07-04T01:54:00.385Z,59.92
2018-07-04T01:55:00.556Z,59.64
2018-07-04T01:56:00.741Z,60.11
2018-07-04T01:57:00.902Z,60.02
2018-07-04T01:58:01.067Z,60.40
2018-07-04T01:59:01.243Z,59.83
2018-07-04T02:00:01.410Z,60.21
2018-07-04T02:01:01.582Z,60.11
2018-07-04T02:02:01.748Z,60.21
2018-07-04T02:03:02.604Z,60.11
2018-07-04T02:04:02.100Z,60.11
2018-07-04T02:05:02.268Z,60.11
2018-07-04T02:06:02.434Z,60.31
2018-07-04T02:07:02.610Z,60.69
2018-07-04T02:08:02.785Z,61.08
2018-07-04T02:09:02.952Z,61.05
2018-07-04T02:10:03.116Z,61.62
2018-07-04T02:11:03.286Z,61.72
2018-07-04T02:12:03.456Z,61.72
2018-07-04T02:13:03.624Z,61.43
2018-07-04T02:14:03.799Z,61.81
2018-07-04T02:15:03.965Z,61.43
2018-07-04T02:16:04.132Z,61.62
2018-07-04T02:17:04.304Z,60.95
2018-07-04T02:18:04.470Z,61.05
2018-07-04T02:19:04.634Z,61.05
2018-07-04T02:20:04.806Z,60.95
2018-07-04T02:21:04.973Z,61.52
2018-07-04T02:22:05.142Z,61.81
2018-07-04T02:23:05.312Z,61.91
2018-07-04T02:24:05.486Z,61.98
2018-07-04T02:25:05.651Z,61.72
2018-07-04T02:26:05.822Z,61.78
2018-07-04T02:27:05.992Z,61.88
2018-07-04T02:28:06.160Z,62.07
2018-07-04T02:29:06.341Z,62.36
2018-07-04T02:30:06.510Z,62.36
2018-07-04T02:31:06.678Z,62.65
2018-07-04T02:32:06.847Z,62.19
2018-07-04T02:33:07.012Z,62.19
2018-07-04T02:34:07.181Z,61.91
2018-07-04T02:35:07.346Z,61.81
2018-07-04T02:36:07.516Z,61.52
2018-07-04T02:37:07.682Z,61.43
2018-07-04T02:38:07.851Z,62.01
2018-07-04T02:39:08.022Z,61.62
2018-07-04T02:40:08.187Z,61.52
2018-07-04T02:41:08.371Z,61.52
2018-07-04T02:42:08.518Z,61.43
2018-07-04T02:43:08.681Z,61.72
2018-07-04T02:44:08.860Z,61.62
2018-07-04T02:45:09.022Z,61.33
2018-07-04T02:46:09.200Z,61.72
2018-07-04T02:47:09.351Z,62.29
2018-07-04T02:48:09.521Z,62.39
2018-07-04T02:49:09.687Z,62.65
2018-07-04T02:50:09.853Z,62.65
2018-07-04T02:51:10.021Z,63.12
2018-07-04T02:52:10.190Z,63.60
2018-07-04T02:53:10.356Z,63.42
2018-07-04T02:54:10.519Z,63.42
2018-07-04T02:55:10.686Z,63.42
2018-07-04T02:56:10.856Z,63.51
2018-07-04T02:57:11.027Z,63.03
2018-07-04T02:58:11.190Z,63.22
2018-07-04T02:59:11.360Z,62.87
2018-07-04T03:00:11.533Z,62.39
2018-07-04T03:01:11.700Z,62.68
2018-07-04T03:02:11.868Z,62.10
2018-07-04T03:03:12.047Z,61.62
2018-07-04T03:04:12.217Z,62.01
2018-07-04T03:05:12.378Z,62.10
2018-07-04T03:06:12.552Z,61.91
2018-07-04T03:07:12.724Z,61.91
2018-07-04T03:08:12.893Z,62.07
2018-07-04T03:09:13.059Z,62.36
2018-07-04T03:10:13.230Z,63.12
2018-07-04T03:11:13.405Z,63.32
2018-07-04T03:12:13.571Z,63.32
2018-07-04T03:13:13.743Z,63.67
2018-07-04T03:14:13.917Z,63.96
2018-07-04T03:15:14.116Z,64.47
2018-07-04T03:16:14.322Z,64.37
2018-07-04T03:17:14.492Z,64.92
2018-07-04T03:18:14.657Z,64.63
2018-07-04T03:19:14.820Z,65.01
2018-07-04T03:20:14.996Z,65.23
2018-07-04T03:21:15.238Z,65.20
2018-07-04T03:22:15.368Z,65.01
2018-07-04T03:23:15.540Z,65.88
2018-07-04T03:24:15.707Z,65.59
2018-07-04T03:25:15.871Z,65.68
2018-07-04T03:26:16.042Z,65.11
2018-07-04T03:27:16.212Z,65.01
2018-07-04T03:28:16.371Z,64.82
2018-07-04T03:29:16.558Z,64.85
2018-07-04T03:30:16.720Z,64.37
2018-07-04T03:31:16.933Z,64.28
2018-07-04T03:32:17.049Z,64.56
2018-07-04T03:33:17.704Z,63.79
2018-07-04T03:34:17.392Z,63.70
2018-07-04T03:35:17.558Z,63.79
2018-07-04T03:36:17.722Z,63.60
2018-07-04T03:37:17.885Z,63.70
2018-07-04T03:38:18.064Z,64.37
2018-07-04T03:39:18.227Z,64.09
2018-07-04T03:40:18.414Z,64.28
2018-07-04T03:41:18.583Z,63.51
2018-07-04T03:42:18.748Z,63.70
2018-07-04T03:43:18.915Z,63.79
2018-07-04T03:44:19.086Z,63.60
2018-07-04T03:45:19.257Z,63.54
2018-07-04T03:46:19.424Z,63.25
2018-07-04T03:47:19.621Z,63.25
2018-07-04T03:48:19.766Z,63.64
2018-07-04T03:49:19.934Z,63.54
2018-07-04T03:50:20.102Z,63.54
2018-07-04T03:51:20.274Z,63.70
2018-07-04T03:52:20.441Z,63.70
2018-07-04T03:53:20.608Z,63.42
2018-07-04T03:54:20.788Z,63.89
2018-07-04T03:55:20.957Z,63.42
2018-07-04T03:56:21.127Z,63.99
2018-07-04T03:57:21.295Z,64.43
2018-07-04T03:58:21.462Z,64.82
2018-07-04T03:59:21.632Z,65.01
2018-07-04T04:00:21.797Z,65.20
2018-07-04T04:01:21.964Z,66.06
2018-07-04T04:02:22.134Z,66.45
2018-07-04T04:03:22.300Z,66.55
2018-07-04T04:04:23.124Z,66.55
2018-07-04T04:05:22.624Z,66.74
2018-07-04T04:06:22.790Z,66.45
2018-07-04T04:07:23.017Z,66.35
2018-07-04T04:08:23.123Z,65.62
2018-07-04T04:09:23.297Z,65.81
2018-07-04T04:10:23.460Z,65.05
2018-07-04T04:11:23.626Z,64.85
2018-07-04T04:12:23.792Z,64.66
2018-07-04T04:13:23.973Z,65.14
2018-07-04T04:14:24.128Z,64.66
2018-07-04T04:15:24.296Z,64.47
2018-07-04T04:16:24.466Z,64.47
2018-07-04T04:17:24.633Z,65.05
2018-07-04T04:18:24.806Z,64.95
2018-07-04T04:19:24.984Z,65.14
2018-07-04T04:20:25.134Z,64.85
2018-07-04T04:21:25.302Z,64.85
2018-07-04T04:22:25.476Z,64.56
2018-07-04T04:23:25.642Z,65.05
2018-07-04T04:24:25.808Z,65.62
2018-07-04T04:25:25.976Z,65.52
2018-07-04T04:26:26.142Z,65.33
2018-07-04T04:27:26.313Z,65.33
2018-07-04T04:28:26.484Z,65.27
2018-07-04T04:29:26.652Z,65.05
2018-07-04T04:30:26.818Z,64.85
2018-07-04T04:31:26.990Z,64.95
2018-07-04T04:32:27.157Z,65.14
2018-07-04T04:33:27.327Z,65.14
2018-07-04T04:34:27.498Z,65.43
2018-07-04T04:35:27.660Z,65.14
2018-07-04T04:36:27.835Z,65.81
2018-07-04T04:37:28.004Z,65.72
2018-07-04T04:38:28.166Z,65.81
2018-07-04T04:39:28.335Z,66.10
2018-07-04T04:40:28.504Z,66.49
2018-07-04T04:41:28.674Z,66.67
2018-07-04T04:42:28.894Z,66.39
2018-07-04T04:43:29.014Z,66.33
2018-07-04T04:44:29.187Z,66.71
2018-07-04T04:45:29.355Z,66.13
2018-07-04T04:46:29.526Z,66.39
2018-07-04T04:47:29.702Z,65.84
2018-07-04T04:48:29.854Z,66.03
2018-07-04T04:49:30.026Z,66.52
2018-07-04T04:50:30.193Z,66.71
2018-07-04T04:51:30.364Z,67.96
2018-07-04T04:52:30.536Z,68.44
2018-07-04T04:53:30.701Z,69.07
2018-07-04T04:54:30.867Z,69.11
2018-07-04T04:55:31.033Z,69.11
2018-07-04T04:56:31.206Z,68.05
2018-07-04T04:57:31.375Z,67.76
2018-07-04T04:58:31.547Z,68.02
2018-07-04T04:59:31.714Z,68.79
2018-07-04T05:00:31.885Z,68.82
2018-07-04T05:01:32.068Z,69.26
2018-07-04T05:02:32.240Z,69.01
2018-07-04T05:03:32.411Z,69.30
2018-07-04T05:04:32.573Z,69.01
2018-07-04T05:05:32.742Z,68.15
2018-07-04T05:06:32.911Z,68.53
2018-07-04T05:07:33.132Z,68.15
2018-07-04T05:08:33.260Z,67.86
2018-07-04T05:09:33.427Z,68.44
2018-07-04T05:10:33.591Z,68.05
2018-07-04T05:11:33.766Z,68.34
2018-07-04T05:12:33.933Z,68.34
2018-07-04T05:13:34.111Z,68.24
2018-07-04T05:14:34.277Z,68.15
2018-07-04T05:15:34.508Z,68.15
2018-07-04T05:16:34.623Z,68.05
2018-07-04T05:17:34.792Z,68.18
2018-07-04T05:18:34.965Z,68.28
2018-07-04T05:19:35.138Z,67.90
2018-07-04T05:20:35.306Z,67.51
2018-07-04T05:21:35.475Z,67.41
2018-07-04T05:22:35.644Z,67.90
2018-07-04T05:23:35.813Z,68.28
2018-07-04T05:24:35.978Z,67.51
2018-07-04T05:25:36.147Z,66.68
2018-07-04T05:26:36.313Z,66.68
2018-07-04T05:27:36.488Z,66.39
2018-07-04T05:28:36.663Z,66.10
2018-07-04T05:29:36.846Z,66.20
2018-07-04T05:30:37.018Z,65.53
2018-07-04T05:31:37.187Z,65.17
2018-07-04T05:32:37.356Z,65.27
2018-07-04T05:33:37.524Z,65.08
2018-07-04T05:34:37.694Z,65.27
2018-07-04T05:35:37.864Z,64.40
2018-07-04T05:36:38.043Z,64.12
2018-07-04T05:37:38.204Z,63.92
2018-07-04T05:38:38.367Z,63.54
2018-07-04T05:39:38.541Z,63.38
2018-07-04T05:40:38.714Z,63.38
2018-07-04T05:41:38.889Z,62.77
2018-07-04T05:42:39.051Z,62.77
2018-07-04T05:43:39.218Z,62.19
2018-07-04T05:44:39.385Z,60.66
2018-07-04T05:45:39.555Z,60.59
2018-07-04T05:46:39.728Z,60.69
2018-07-04T05:47:39.899Z,60.49
2018-07-04T05:48:40.072Z,60.69
2018-07-04T05:49:40.228Z,60.88
2018-07-04T05:50:40.397Z,60.49
2018-07-04T05:51:40.564Z,60.69
2018-07-04T05:52:40.739Z,60.30
2018-07-04T05:53:40.907Z,60.04
2018-07-04T05:54:41.078Z,60.33
2018-07-04T05:55:41.247Z,59.75
2018-07-04T05:56:41.411Z,59.94
2018-07-04T05:57:41.581Z,59.94
2018-07-04T05:58:41.750Z,58.72
2018-07-04T05:59:41.919Z,59.17
2018-07-04T06:00:42.089Z,59.17
2018-07-04T06:01:42.253Z,60.75
2018-07-04T06:02:42.422Z,60.84
2018-07-04T06:03:42.593Z,60.55
2018-07-04T06:04:42.758Z,60.30
2018-07-04T06:05:42.929Z,59.23
2018-07-04T06:06:43.097Z,58.85
2018-07-04T06:07:43.267Z,58.69
2018-07-04T06:08:43.433Z,58.30
2018-07-04T06:09:43.604Z,58.20
2018-07-04T06:10:43.780Z,58.40
2018-07-04T06:11:43.944Z,58.30
2018-07-04T06:12:44.117Z,57.53
2018-07-04T06:13:44.294Z,57.43
2018-07-04T06:14:44.469Z,57.43
2018-07-04T06:15:44.635Z,57.43
2018-07-04T06:16:44.805Z,57.53
2018-07-04T06:17:45.019Z,57.14
2018-07-04T06:18:45.137Z,56.57
2018-07-04T06:19:45.309Z,56.47
2018-07-04T06:20:45.485Z,57.05
2018-07-04T06:21:45.658Z,56.59
2018-07-04T06:22:45.826Z,56.79
2018-07-04T06:23:45.997Z,56.49
2018-07-04T06:24:46.170Z,56.11
2018-07-04T06:25:46.337Z,55.82
2018-07-04T06:26:46.504Z,56.11
2018-07-04T06:27:46.680Z,55.63
2018-07-04T06:28:46.848Z,55.54
2018-07-04T06:29:47.018Z,55.24
2018-07-04T06:30:47.188Z,54.88
2018-07-04T06:31:47.356Z,54.60
2018-07-04T06:32:47.528Z,54.79
2018-07-04T06:33:47.696Z,54.02
2018-07-04T06:34:47.863Z,54.21
2018-07-04T06:35:48.033Z,53.05
2018-07-04T06:36:48.201Z,52.37
2018-07-04T06:37:48.366Z,52.31
2018-07-04T06:38:48.535Z,51.44
2018-07-04T06:39:48.712Z,52.40
2018-07-04T06:40:48.888Z,52.50
2018-07-04T06:41:49.057Z,52.50
2018-07-04T06:42:49.226Z,54.43
2018-07-04T06:43:49.396Z,54.43
2018-07-04T06:44:49.575Z,53.47
2018-07-04T06:45:49.745Z,52.89
2018-07-04T06:46:49.917Z,52.89
2018-07-04T06:47:50.079Z,52.69
2018-07-04T06:48:50.358Z,52.31
2018-07-04T06:49:50.423Z,51.56
2018-07-04T06:50:50.598Z,52.43
2018-07-04T06:51:50.762Z,51.37
2018-07-04T06:52:50.939Z,50.89
2018-07-04T06:53:51.105Z,49.63
2018-07-04T06:54:51.278Z,49.34
2018-07-04T06:55:51.447Z,50.13
2018-07-04T06:56:51.615Z,50.23
2018-07-04T06:57:51.784Z,50.13
2018-07-04T06:58:51.960Z,50.74
2018-07-04T06:59:52.134Z,50.26
2018-07-04T07:00:52.305Z,49.19
2018-07-04T07:01:52.479Z,49.10
2018-07-04T07:02:52.646Z,49.58
2018-07-04T07:03:52.825Z,49.49
2018-07-04T07:04:52.998Z,49.39
2018-07-04T07:05:53.166Z,49.49
2018-07-04T07:06:53.339Z,49.87
2018-07-04T07:07:53.513Z,50.16
2018-07-04T07:08:53.677Z,50.18
2018-07-04T07:09:53.851Z,50.18
2018-07-04T07:10:54.028Z,49.70
2018-07-04T07:11:54.195Z,48.44
2018-07-04T07:12:54.361Z,48.16
2018-07-04T07:13:54.542Z,49.12
2018-07-04T07:14:54.714Z,49.24
2018-07-04T07:15:54.883Z,48.47
2018-07-04T07:16:55.056Z,48.47
2018-07-04T07:17:55.229Z,47.69
2018-07-04T07:18:55.405Z,48.37
2018-07-04T07:19:55.578Z,48.66
2018-07-04T07:20:55.749Z,48.18
2018-07-04T07:21:55.914Z,47.14
2018-07-04T07:22:56.089Z,47.14
2018-07-04T07:23:56.257Z,47.14
2018-07-04T07:24:56.429Z,47.04
2018-07-04T07:25:56.601Z,45.71
2018-07-04T07:26:56.776Z,46.00
2018-07-04T07:27:56.950Z,45.64
2018-07-04T07:28:57.118Z,45.92
2018-07-04T07:29:57.291Z,45.95
2018-07-04T07:30:57.461Z,44.78
2018-07-04T07:31:57.654Z,44.01
2018-07-04T07:32:57.806Z,44.98
2018-07-04T07:33:57.994Z,44.78
2018-07-04T07:34:58.156Z,43.91
2018-07-04T07:35:58.331Z,44.20
2018-07-04T07:36:58.504Z,44.40
2018-07-04T07:37:58.672Z,44.01
2018-07-04T07:38:58.840Z,43.43
2018-07-04T07:39:59.009Z,43.74
2018-07-04T07:40:59.182Z,43.93
2018-07-04T07:41:59.414Z,43.45
2018-07-04T07:42:59.526Z,43.35
2018-07-04T07:43:59.697Z,44.23
2018-07-04T07:44:59.875Z,43.54
2018-07-04T07:46:00.049Z,43.64
2018-07-04T07:47:00.218Z,44.23
2018-07-04T07:48:00.388Z,44.71
2018-07-04T07:49:00.559Z,44.42
2018-07-04T07:50:00.733Z,44.13
2018-07-04T07:51:00.912Z,43.93
2018-07-04T07:52:01.095Z,44.05
2018-07-04T07:53:01.265Z,43.27
2018-07-04T07:54:01.448Z,42.89
2018-07-04T07:55:01.615Z,42.71
2018-07-04T07:56:01.790Z,42.13
2018-07-04T07:57:01.964Z,42.13
2018-07-04T07:58:02.137Z,41.86
2018-07-04T07:59:02.309Z,41.47
2018-07-04T08:00:02.484Z,41.88
2018-07-04T08:01:02.657Z,42.46
2018-07-04T08:02:02.836Z,42.27
2018-07-04T08:03:03.000Z,42.19
2018-07-04T08:04:03.168Z,41.61
2018-07-04T08:05:03.343Z,41.61
2018-07-04T08:06:03.520Z,41.34
2018-07-04T08:07:03.698Z,40.17
2018-07-04T08:08:03.870Z,40.27
2018-07-04T08:09:04.047Z,39.49
2018-07-04T08:10:04.221Z,39.61
2018-07-04T08:11:04.414Z,39.61
2018-07-04T08:12:04.566Z,38.56
2018-07-04T08:13:04.744Z,38.09
2018-07-04T08:14:04.920Z,38.65
2018-07-04T08:15:05.096Z,37.39
2018-07-04T08:16:05.275Z,37.12
2018-07-04T08:17:05.447Z,37.10
2018-07-04T08:18:05.624Z,37.19
2018-07-04T08:19:05.797Z,37.02
2018-07-04T08:20:05.974Z,36.72
2018-07-04T08:21:06.147Z,36.72
2018-07-04T08:22:06.322Z,36.43
2018-07-04T08:23:06.495Z,36.04
2018-07-04T08:24:06.671Z,35.77
2018-07-04T08:25:06.847Z,35.28
2018-07-04T08:26:07.022Z,35.18
2018-07-04T08:27:07.196Z,35.08
2018-07-04T08:28:07.374Z,34.59
2018-07-04T08:29:07.544Z,34.11
2018-07-04T08:30:07.725Z,34.97
2018-07-04T08:31:07.901Z,34.89
2018-07-04T08:32:08.079Z,33.12
2018-07-04T08:33:08.244Z,35.55
2018-07-04T08:34:08.421Z,35.55
2018-07-04T08:35:08.599Z,35.36
2018-07-04T08:36:08.785Z,35.26
2018-07-04T08:37:08.964Z,34.78
2018-07-04T08:38:09.137Z,34.88
2018-07-04T08:39:09.343Z,35.47
2018-07-04T08:40:09.489Z,32.84
2018-07-04T08:41:09.665Z,32.94
2018-07-04T08:42:09.841Z,33.23
2018-07-04T08:43:10.021Z,33.14
2018-07-04T08:44:10.196Z,33.23
2018-07-04T08:45:10.370Z,34.11
2018-07-04T08:46:10.549Z,34.40
2018-07-04T08:47:10.724Z,32.55
2018-07-04T08:48:10.905Z,32.28
2018-07-04T08:49:11.088Z,31.79
2018-07-04T08:50:11.266Z,31.88
2018-07-04T08:51:11.479Z,31.40
2018-07-04T08:52:11.618Z,32.96
2018-07-04T08:53:11.795Z,38.34
2018-07-04T08:54:11.979Z,39.72
2018-07-04T08:55:12.151Z,35.72
2018-07-04T08:56:12.325Z,31.90
2018-07-04T08:57:12.513Z,31.41
2018-07-04T08:58:12.732Z,30.74
2018-07-04T08:59:12.879Z,30.44
2018-07-04T09:00:13.062Z,30.54
2018-07-04T09:01:13.232Z,31.72
2018-07-04T09:02:13.407Z,31.51
2018-07-04T09:03:13.582Z,30.65
2018-07-04T09:04:13.758Z,30.45
2018-07-04T09:05:14.123Z,31.52
2018-07-04T09:06:14.100Z,31.54
2018-07-04T09:07:14.264Z,30.37
2018-07-04T09:08:14.442Z,30.37
2018-07-04T09:09:14.619Z,31.16
2018-07-04T09:10:14.798Z,31.85
2018-07-04T09:11:14.978Z,30.47
2018-07-04T09:12:15.160Z,30.76
2018-07-04T09:13:15.326Z,30.37
2018-07-04T09:14:15.506Z,29.88
2018-07-04T09:15:15.681Z,29.20
2018-07-04T09:16:15.861Z,28.71
2018-07-04T09:17:16.034Z,29.21
2018-07-04T09:18:16.206Z,29.52
2018-07-04T09:19:16.387Z,30.38
2018-07-04T09:20:16.572Z,30.58
2018-07-04T09:21:16.738Z,30.27
2018-07-04T09:22:16.921Z,30.38
2018-07-04T09:23:17.098Z,30.00
2018-07-04T09:24:17.282Z,29.52
2018-07-04T09:25:17.455Z,29.22
2018-07-04T09:26:17.628Z,29.44
2018-07-04T09:27:17.807Z,29.45
2018-07-04T09:28:17.983Z,29.28
2018-07-04T09:29:18.174Z,27.84
2018-07-04T09:30:18.360Z,26.98
2018-07-04T09:31:18.538Z,25.83
2018-07-04T09:32:18.711Z,25.46
2018-07-04T09:33:18.890Z,24.11
2018-07-04T09:34:19.077Z,22.66
2018-07-04T09:35:19.278Z,22.75
2018-07-04T09:36:19.512Z,22.99
2018-07-04T09:37:19.632Z,21.42
2018-07-04T09:38:19.840Z,21.05
2018-07-04T09:39:20.005Z,20.37
2018-07-04T09:40:20.184Z,20.00
2018-07-04T09:41:20.361Z,19.12
2018-07-04T09:42:20.541Z,18.25
2018-07-04T09:43:20.719Z,18.44
2018-07-04T09:44:20.906Z,18.35
2018-07-04T09:45:21.090Z,18.63
2018-07-04T09:46:21.268Z,18.73
2018-07-04T09:47:21.445Z,18.80
2018-07-04T09:48:21.642Z,19.36
2018-07-04T09:49:21.830Z,20.06
2018-07-04T09:50:22.024Z,20.92
2018-07-04T09:51:22.199Z,20.92
2018-07-04T09:52:22.435Z,20.35
2018-07-04T09:53:22.709Z,19.78
2018-07-04T09:54:22.816Z,18.21
2018-07-04T09:55:22.995Z,17.82
2018-07-04T09:56:23.185Z,17.44
2018-07-04T09:57:23.361Z,15.58
2018-07-04T09:58:23.547Z,14.21
2018-07-04T09:59:23.737Z,14.21
2018-07-04T10:00:23.925Z,14.41
2018-07-04T10:01:24.107Z,13.32
2018-07-04T10:02:24.286Z,12.32
2018-07-04T10:03:24.469Z,13.21
2018-07-04T10:04:24.659Z,11.22
2018-07-04T10:05:24.844Z,10.31
2018-07-04T10:06:25.026Z,9.51
2018-07-04T10:07:25.218Z,10.89
2018-07-04T10:08:25.409Z,12.26
2018-07-04T10:09:25.594Z,13.04
2018-07-04T10:10:25.776Z,13.34
2018-07-04T10:11:25.957Z,14.12
2018-07-04T10:12:26.141Z,14.51
2018-07-04T10:13:26.325Z,14.91
2018-07-04T10:14:26.517Z,15.52
2018-07-04T10:15:26.692Z,15.14
2018-07-04T10:16:26.879Z,15.94
2018-07-04T10:17:27.051Z,14.55
2018-07-04T10:18:27.239Z,15.13
2018-07-04T10:19:27.416Z,16.10
2018-07-04T10:20:27.599Z,17.37
2018-07-04T10:21:27.781Z,17.66
2018-07-04T10:22:27.965Z,17.94
2018-07-04T10:23:28.146Z,18.52
2018-07-04T10:24:28.329Z,18.32
2018-07-04T10:25:28.508Z,19.00
2018-07-04T10:26:28.686Z,20.28
2018-07-04T10:27:28.868Z,20.37
2018-07-04T10:28:29.067Z,20.67
2018-07-04T10:29:29.238Z,21.33
2018-07-04T10:30:29.415Z,21.42
2018-07-04T10:31:29.598Z,21.52
2018-07-04T10:32:29.778Z,21.80
2018-07-04T10:33:29.961Z,22.88
2018-07-04T10:34:30.146Z,24.04
2018-07-04T10:35:30.333Z,24.24
2018-07-04T10:36:30.512Z,24.14
2018-07-04T10:37:30.713Z,24.24
2018-07-04T10:38:30.873Z,23.84
2018-07-04T10:39:31.057Z,24.14
2018-07-04T10:40:31.238Z,23.84
2018-07-04T10:41:31.420Z,23.07
2018-07-04T10:42:31.596Z,23.65
2018-07-04T10:43:31.775Z,23.94
2018-07-04T10:44:31.955Z,24.13
2018-07-04T10:45:32.140Z,25.79
2018-07-04T10:46:32.326Z,25.70
2018-07-04T10:47:32.501Z,24.62
2018-07-04T10:48:32.685Z,24.24
2018-07-04T10:49:32.869Z,24.15
2018-07-04T10:50:33.045Z,24.05
2018-07-04T10:51:33.225Z,25.12
2018-07-04T10:52:33.406Z,25.32
2018-07-04T10:53:33.582Z,24.43
2018-07-04T10:54:33.782Z,24.32
2018-07-04T10:55:33.945Z,24.44
2018-07-04T10:56:34.131Z,23.86
2018-07-04T10:57:34.316Z,23.58
2018-07-04T10:58:34.550Z,23.68
2018-07-04T10:59:34.679Z,23.19
2018-07-04T11:00:34.867Z,24.17
2018-07-04T11:01:35.040Z,24.46
2018-07-04T11:02:35.229Z,25.03
2018-07-04T11:03:35.412Z,25.02
2018-07-04T11:04:36.281Z,24.54
2018-07-04T11:05:35.752Z,24.44
2018-07-04T11:06:35.931Z,24.73
2018-07-04T11:07:36.113Z,24.85
2018-07-04T11:08:36.292Z,25.73
2018-07-04T11:09:36.476Z,24.77
2018-07-04T11:10:36.661Z,23.42
2018-07-04T11:11:36.835Z,23.03
2018-07-04T11:12:37.009Z,21.57
2018-07-04T11:13:37.191Z,22.26
2018-07-04T11:14:37.372Z,22.14
2018-07-04T11:15:37.561Z,22.62
2018-07-04T11:16:37.754Z,23.50
2018-07-04T11:17:37.923Z,23.40
2018-07-04T11:18:38.109Z,23.90
2018-07-04T11:19:38.284Z,23.99
2018-07-04T11:20:38.468Z,24.00
2018-07-04T11:21:38.652Z,24.38
2018-07-04T11:22:38.841Z,23.97
2018-07-04T11:23:39.009Z,24.96
2018-07-04T11:24:39.186Z,24.18
2018-07-04T11:25:39.377Z,24.59
2018-07-04T11:26:39.558Z,24.70
2018-07-04T11:27:39.745Z,24.02
2018-07-04T11:28:39.924Z,23.80
2018-07-04T11:29:40.104Z,24.41
2018-07-04T11:30:40.296Z,23.93
2018-07-04T11:31:40.466Z,24.04
2018-07-04T11:32:40.645Z,22.75
2018-07-04T11:33:40.844Z,22.67
2018-07-04T11:34:41.006Z,21.33
2018-07-04T11:35:41.183Z,20.83
2018-07-04T11:36:41.368Z,20.91
2018-07-04T11:37:41.561Z,21.22
2018-07-04T11:38:41.748Z,21.42
2018-07-04T11:39:41.932Z,21.78
2018-07-04T11:40:42.114Z,22.47
2018-07-04T11:41:42.311Z,22.37
2018-07-04T11:42:42.487Z,22.74
2018-07-04T11:43:42.668Z,22.56
2018-07-04T11:44:42.858Z,21.39
2018-07-04T11:45:43.048Z,21.42
2018-07-04T11:46:43.221Z,18.90
2018-07-04T11:47:43.404Z,18.52
2018-07-04T11:48:43.601Z,19.29
2018-07-04T11:49:43.779Z,19.87
2018-07-04T11:50:43.959Z,20.73
2018-07-04T11:51:44.144Z,21.11
2018-07-04T11:52:44.335Z,21.00
2018-07-04T11:53:44.540Z,20.14
2018-07-04T11:54:44.704Z,19.17
2018-07-04T11:55:44.885Z,19.57
2018-07-04T11:56:45.077Z,20.45
2018-07-04T11:57:45.258Z,19.65
2018-07-04T11:58:45.443Z,21.31
2018-07-04T11:59:45.635Z,20.35
2018-07-04T12:00:45.823Z,19.29
2018-07-04T12:01:46.044Z,19.39
2018-07-04T12:02:46.187Z,19.18
2018-07-04T12:03:46.366Z,19.41
2018-07-04T12:04:46.553Z,18.62
2018-07-04T12:05:46.750Z,19.68
2018-07-04T12:06:46.943Z,19.56
2018-07-04T12:08:39.371Z,19.95
2018-07-04T12:09:39.547Z,19.26
2018-07-04T12:10:39.738Z,20.44
2018-07-04T12:11:39.914Z,20.43
2018-07-04T12:12:40.103Z,20.64
2018-07-04T12:13:40.284Z,20.22
2018-07-04T12:14:40.465Z,20.81
2018-07-04T12:15:40.645Z,19.73
2018-07-04T12:16:40.825Z,19.96
2018-07-04T12:17:41.008Z,19.60
2018-07-04T12:18:41.183Z,16.75
2018-07-04T12:19:41.377Z,16.66
2018-07-04T12:20:41.565Z,16.74
2018-07-04T12:21:41.757Z,17.53
2018-07-04T12:22:41.937Z,17.82
2018-07-04T12:23:42.121Z,18.59
2018-07-04T12:24:42.305Z,19.77
2018-07-04T12:25:42.490Z,19.17
2018-07-04T12:26:42.762Z,18.77
2018-07-04T12:27:42.853Z,19.26
2018-07-04T12:28:43.037Z,18.37
2018-07-04T12:29:43.228Z,18.98
2018-07-04T12:30:43.410Z,18.90
2018-07-04T12:31:43.592Z,18.59
2018-07-04T12:32:43.775Z,18.80
2018-07-04T12:33:43.955Z,18.99
2018-07-04T12:34:44.130Z,18.98
2018-07-04T12:35:44.325Z,19.17
2018-07-04T12:36:44.507Z,18.98
2018-07-04T12:37:44.698Z,20.65
2018-07-04T12:38:44.873Z,19.68
2018-07-04T12:39:45.052Z,19.10
2018-07-04T12:40:45.252Z,19.11
2018-07-04T12:41:45.432Z,18.52
2018-07-04T12:42:45.617Z,18.62
2018-07-04T12:43:45.829Z,18.22
2018-07-04T12:44:45.998Z,19.20
2018-07-04T12:45:46.192Z,19.01
2018-07-04T12:46:46.375Z,18.80
2018-07-04T12:47:46.565Z,19.29
2018-07-04T12:48:46.740Z,18.90
2018-07-04T12:49:46.929Z,19.28
2018-07-04T12:50:47.111Z,18.88
2018-07-04T12:51:47.299Z,19.17
2018-07-04T12:52:47.513Z,20.06
2018-07-04T12:53:47.743Z,21.12
2018-07-04T12:54:47.973Z,21.80
2018-07-04T12:55:48.059Z,21.61
2018-07-04T12:56:48.239Z,21.01